Time;durP1;ratioP1;P1;durP2;ratioP2;P2;SDS_P1;SDS_P2;PMS_P1;PMS_P2;Temp;Humidity;BMP_temperature;BMP_pressure;BME280_temperature;BME280_humidity;BME280_pressure;Samples;Min_cycle;Max_cycle;Signal;HPM_P1;HPM_P2
2022/06/30 00:01:55;;;;;;;12.27;2.30;;;17.50;66.40;;;;;;5070951;28;20040;-72
2022/06/30 00:04:21;;;;;;;9.55;2.47;;;17.50;66.60;;;;;;5073520;28;20111;-72
2022/06/30 00:06:48;;;;;;;6.50;1.45;;;17.50;66.40;;;;;;5074275;28;20026;-73
2022/06/30 00:09:14;;;;;;;7.95;1.55;;;17.50;66.00;;;;;;5077328;28;20077;-72
2022/06/30 00:11:41;;;;;;;4.03;1.60;;;17.50;66.80;;;;;;5071102;28;20028;-73
2022/06/30 00:14:07;;;;;;;4.63;1.88;;;17.40;67.20;;;;;;5076651;28;20040;-74
2022/06/30 00:16:34;;;;;;;3.70;1.63;;;17.40;67.80;;;;;;5070479;28;20529;-73
2022/06/30 00:19:00;;;;;;;3.47;1.58;;;17.40;67.50;;;;;;5077453;28;20032;-72
2022/06/30 00:21:27;;;;;;;22.73;2.05;;;17.40;67.00;;;;;;5075747;28;20016;-71
2022/06/30 00:23:53;;;;;;;4.47;2.33;;;17.40;66.80;;;;;;5070618;28;20069;-71
2022/06/30 00:26:20;;;;;;;5.18;2.90;;;17.40;66.60;;;;;;5074847;28;20028;-71
2022/06/30 00:28:46;;;;;;;19.15;4.13;;;17.40;66.70;;;;;;5075658;28;20020;-74
2022/06/30 00:31:13;;;;;;;23.17;4.95;;;17.30;66.60;;;;;;5072788;28;20089;-71
2022/06/30 00:33:39;;;;;;;14.25;4.53;;;17.30;67.40;;;;;;5075845;28;20394;-73
2022/06/30 00:36:06;;;;;;;6.80;3.83;;;17.40;67.40;;;;;;5073483;28;20021;-74
2022/06/30 00:38:32;;;;;;;7.88;3.30;;;17.30;67.20;;;;;;5075133;28;20016;-72
2022/06/30 00:40:59;;;;;;;8.38;4.45;;;17.30;67.10;;;;;;5074554;28;20027;-71
2022/06/30 00:43:25;;;;;;;5.40;3.22;;;17.30;67.10;;;;;;5072887;28;20978;-72
2022/06/30 00:45:52;;;;;;;6.72;3.80;;;17.30;67.20;;;;;;5075012;28;20020;-72
2022/06/30 00:48:19;;;;;;;7.55;4.32;;;17.30;67.00;;;;;;5072128;28;20013;-70
2022/06/30 00:50:46;;;;;;;10.60;3.90;;;17.30;67.10;;;;;;5068775;28;20052;-71
2022/06/30 00:53:12;;;;;;;8.32;3.85;;;17.20;67.10;;;;;;5077553;28;20422;-73
2022/06/30 00:55:39;;;;;;;5.93;3.70;;;17.20;67.10;;;;;;5072162;28;20024;-71
2022/06/30 00:58:09;;;;;;;6.05;3.83;;;17.20;67.10;;;;;;5075061;28;20024;-73
2022/06/30 01:00:40;;;;;;;8.07;4.22;;;17.20;67.00;;;;;;5075420;28;20479;-71
2022/06/30 01:03:08;;;;;;;5.75;3.58;;;17.20;67.10;;;;;;5077202;28;20020;-71
2022/06/30 01:05:36;;;;;;;8.35;4.35;;;17.20;67.10;;;;;;5081649;28;20029;-72
2022/06/30 01:08:04;;;;;;;5.10;3.63;;;17.10;67.00;;;;;;5075943;28;20028;-71
2022/06/30 01:13:15;;;;;;;6.35;3.78;;;17.10;67.10;;;;;;5078779;28;20055;-71
2022/06/30 01:15:42;;;;;;;9.00;3.67;;;17.10;67.10;;;;;;5077098;28;20116;-74
2022/06/30 01:18:08;;;;;;;9.00;4.15;;;17.10;67.40;;;;;;5078366;28;20454;-71
2022/06/30 01:20:35;;;;;;;8.60;4.03;;;17.10;67.30;;;;;;5077649;28;20055;-72
2022/06/30 01:23:04;;;;;;;6.53;3.28;;;17.10;67.60;;;;;;5077353;28;20104;-73
2022/06/30 01:25:31;;;;;;;7.38;3.63;;;17.00;67.40;;;;;;5075006;28;20024;-73
2022/06/30 01:27:57;;;;;;;4.25;3.13;;;17.00;67.20;;;;;;5077697;28;20028;-70
2022/06/30 01:30:24;;;;;;;8.05;3.25;;;17.00;67.20;;;;;;5078207;28;20024;-73
2022/06/30 01:32:51;;;;;;;5.40;3.70;;;17.00;67.10;;;;;;5074982;28;20028;-73
2022/06/30 01:35:18;;;;;;;5.47;3.38;;;17.00;67.20;;;;;;5077835;28;20047;-73
2022/06/30 01:37:49;;;;;;;6.65;3.63;;;17.00;67.00;;;;;;5081047;28;20026;-72
2022/06/30 01:40:17;;;;;;;6.85;4.30;;;17.00;67.00;;;;;;5077939;28;20048;-72
2022/06/30 01:42:44;;;;;;;6.80;4.00;;;17.00;67.10;;;;;;5075908;28;20550;-75
2022/06/30 01:45:11;;;;;;;6.28;5.25;;;16.90;67.10;;;;;;5075866;28;20048;-74
2022/06/30 01:47:38;;;;;;;10.13;6.47;;;16.90;67.20;;;;;;5076389;28;20455;-74
2022/06/30 01:50:11;;;;;;;16.02;8.02;;;16.90;67.20;;;;;;5075282;28;20020;-73
2022/06/30 01:52:37;;;;;;;15.30;8.95;;;16.90;67.30;;;;;;5076486;28;20107;-72
2022/06/30 01:55:06;;;;;;;15.60;10.10;;;16.90;67.30;;;;;;5077518;28;20047;-73
2022/06/30 01:57:34;;;;;;;21.17;12.00;;;16.80;67.40;;;;;;5078609;28;20493;-71
2022/06/30 02:00:00;;;;;;;19.17;13.15;;;16.80;67.50;;;;;;5073840;28;20070;-72
2022/06/30 02:02:27;;;;;;;23.67;15.18;;;16.80;67.50;;;;;;5078528;28;20020;-71
2022/06/30 02:04:53;;;;;;;43.47;17.05;;;16.80;67.70;;;;;;5078087;28;20027;-73
2022/06/30 02:07:23;;;;;;;39.47;18.25;;;16.80;68.10;;;;;;5076393;28;20463;-74
2022/06/30 02:09:52;;;;;;;48.90;27.08;;;16.80;69.70;;;;;;5078286;28;20016;-72
2022/06/30 02:15:07;;;;;;;34.70;22.13;;;16.80;69.50;;;;;;5074110;28;20077;-71
2022/06/30 02:17:33;;;;;;;55.67;21.88;;;16.80;70.00;;;;;;5078997;28;20036;-70
2022/06/30 02:20:00;;;;;;;33.22;18.80;;;16.80;70.30;;;;;;5073645;28;20016;-71
2022/06/30 02:22:27;;;;;;;26.70;19.00;;;16.80;69.80;;;;;;5073548;28;20077;-74
2022/06/30 02:24:54;;;;;;;28.52;19.23;;;16.80;69.50;;;;;;5070843;28;20479;-70
2022/06/30 02:27:23;;;;;;;28.33;19.70;;;16.80;69.20;;;;;;5070678;28;20582;-73
2022/06/30 02:29:51;;;;;;;28.60;18.55;;;16.80;68.40;;;;;;5075354;28;20016;-73
2022/06/30 02:32:19;;;;;;;27.02;17.90;;;16.80;68.00;;;;;;5075344;28;20466;-73
2022/06/30 02:34:45;;;;;;;32.90;19.45;;;16.70;67.80;;;;;;5072713;28;20033;-72
2022/06/30 02:37:12;;;;;;;32.28;23.13;;;16.70;68.50;;;;;;5078051;28;20073;-74
2022/06/30 02:39:38;;;;;;;29.58;21.08;;;16.70;68.60;;;;;;5074723;28;20040;-73
2022/06/30 02:42:05;;;;;;;27.58;18.63;;;16.70;68.30;;;;;;5075394;28;20391;-74
2022/06/30 02:44:32;;;;;;;32.88;19.02;;;16.70;68.30;;;;;;5073166;28;20120;-74
2022/06/30 02:46:58;;;;;;;27.88;18.55;;;16.70;68.30;;;;;;5075112;28;20004;-76
2022/06/30 02:49:25;;;;;;;26.35;16.88;;;16.60;67.90;;;;;;5075564;28;20387;-76
2022/06/30 02:51:51;;;;;;;24.77;16.98;;;16.60;67.60;;;;;;5073115;28;20024;-75
2022/06/30 02:54:18;;;;;;;27.85;18.42;;;16.60;67.60;;;;;;5075009;28;20165;-75
2022/06/30 02:56:45;;;;;;;29.70;17.05;;;16.60;67.80;;;;;;5075483;28;20468;-74
2022/06/30 02:59:11;;;;;;;26.67;16.42;;;16.60;68.10;;;;;;5076196;28;20031;-76
2022/06/30 03:01:38;;;;;;;26.38;15.88;;;16.60;68.30;;;;;;5077619;28;20021;-75
2022/06/30 03:04:04;;;;;;;23.38;15.00;;;16.60;68.50;;;;;;5068403;28;20024;-76
2022/06/30 03:06:32;;;;;;;24.33;15.43;;;16.50;68.40;;;;;;5074825;28;20030;-74
2022/06/30 04:52:27;;;;;;;17.98;12.00;;;15.90;68.60;;;;;;5674620;22;15872355;-75
2022/06/30 04:55:02;;;;;;;22.77;13.77;;;15.90;68.60;;;;;;6374994;22;20006;-77
2022/06/30 04:57:29;;;;;;;23.08;13.60;;;15.90;68.50;;;;;;6374366;22;20065;-74
2022/06/30 04:59:55;;;;;;;19.65;12.18;;;15.90;68.40;;;;;;6376189;22;20417;-74
2022/06/30 05:02:22;;;;;;;21.02;12.70;;;15.90;68.40;;;;;;6373904;22;19995;-74
2022/06/30 05:04:48;;;;;;;23.30;12.93;;;15.90;68.50;;;;;;6375199;22;20063;-72
2022/06/30 05:07:16;;;;;;;17.77;10.68;;;15.80;68.40;;;;;;6373988;22;20436;-74
2022/06/30 05:09:43;;;;;;;13.32;9.73;;;15.80;68.40;;;;;;6375398;22;20031;-73
2022/06/30 05:12:10;;;;;;;11.38;6.80;;;15.80;68.10;;;;;;6374615;22;20337;-74
2022/06/30 05:14:36;;;;;;;10.27;5.75;;;15.80;67.70;;;;;;6346071;22;20003;-74
2022/06/30 05:17:04;;;;;;;10.77;5.07;;;15.80;66.70;;;;;;6374269;22;20601;-77
2022/06/30 05:19:31;;;;;;;5.97;3.60;;;15.80;66.30;;;;;;6369363;22;19994;-74
2022/06/30 05:21:58;;;;;;;12.32;3.83;;;15.80;66.00;;;;;;6372695;22;19998;-72
2022/06/30 05:27:09;;;;;;;6.10;3.38;;;15.80;65.50;;;;;;6365696;22;20377;-75
2022/06/30 05:29:36;;;;;;;8.32;3.17;;;15.80;65.40;;;;;;6364217;22;20013;-74
2022/06/30 05:32:03;;;;;;;5.75;3.90;;;15.80;65.20;;;;;;6364016;22;20407;-75
2022/06/30 05:34:29;;;;;;;7.90;2.78;;;15.90;64.50;;;;;;6366255;22;20123;-74
2022/06/30 05:36:56;;;;;;;3.13;2.10;;;15.90;64.60;;;;;;6366082;22;20002;-72
2022/06/30 05:39:22;;;;;;;3.72;2.38;;;15.90;64.40;;;;;;6366881;22;20081;-78
2022/06/30 05:41:49;;;;;;;3.90;2.75;;;15.90;64.40;;;;;;6365483;22;19998;-76
2022/06/30 05:44:15;;;;;;;6.75;2.40;;;15.90;64.30;;;;;;6366973;22;20003;-73
2022/06/30 05:46:43;;;;;;;4.47;2.10;;;15.90;64.00;;;;;;6338168;22;20082;-73
2022/06/30 05:49:10;;;;;;;3.83;1.95;;;16.00;64.20;;;;;;6365828;22;20073;-77
2022/06/30 05:51:37;;;;;;;6.22;2.00;;;15.90;64.10;;;;;;6367161;22;20055;-71
2022/06/30 05:54:04;;;;;;;5.88;2.35;;;16.00;64.30;;;;;;6365501;22;20025;-72
2022/06/30 05:56:30;;;;;;;5.32;1.48;;;16.00;64.00;;;;;;6367478;22;19998;-71
2022/06/30 05:58:56;;;;;;;2.60;1.73;;;16.00;63.90;;;;;;6366368;22;20067;-72
2022/06/30 06:01:23;;;;;;;7.03;1.80;;;16.00;63.90;;;;;;6367730;22;20001;-70
2022/06/30 06:03:49;;;;;;;4.20;1.90;;;16.00;63.60;;;;;;6366701;22;20010;-71
2022/06/30 06:06:16;;;;;;;6.30;1.83;;;16.00;63.70;;;;;;6367610;22;20001;-71
2022/06/30 06:08:42;;;;;;;2.05;1.70;;;16.00;62.80;;;;;;6339281;22;19999;-73
2022/06/30 06:11:09;;;;;;;3.33;1.65;;;16.00;63.40;;;;;;6366194;22;20006;-69
2022/06/30 06:13:35;;;;;;;7.60;2.25;;;16.00;63.40;;;;;;6367409;22;20482;-71
2022/06/30 06:16:02;;;;;;;26.83;3.80;;;16.00;63.60;;;;;;6366307;22;20069;-71
2022/06/30 06:18:28;;;;;;;5.57;1.50;;;16.00;63.50;;;;;;6367644;22;19998;-71
2022/06/30 06:20:55;;;;;;;7.13;2.70;;;16.10;63.50;;;;;;6338351;22;20358;-70
2022/06/30 06:23:21;;;;;;;5.43;1.70;;;16.10;63.50;;;;;;6367487;22;20055;-70
2022/06/30 06:25:48;;;;;;;2.33;1.92;;;16.10;63.10;;;;;;6339204;22;20003;-70
2022/06/30 06:30:59;;;;;;;3.60;1.40;;;16.10;62.50;;;;;;6367658;22;20009;-70
2022/06/30 06:33:25;;;;;;;3.67;1.70;;;16.10;61.50;;;;;;6366336;22;20002;-75
2022/06/30 06:35:52;;;;;;;6.63;1.55;;;16.10;62.20;;;;;;6366889;22;20033;-72
2022/06/30 06:38:19;;;;;;;2.92;1.45;;;16.10;62.20;;;;;;6366248;22;20033;-77
2022/06/30 06:40:45;;;;;;;4.28;1.90;;;16.10;62.00;;;;;;6368198;22;20026;-76
2022/06/30 06:43:12;;;;;;;3.90;1.63;;;16.10;62.40;;;;;;6367790;22;20002;-70
2022/06/30 06:45:38;;;;;;;8.38;3.28;;;16.10;62.50;;;;;;6367255;22;20013;-72
2022/06/30 06:48:44;;;;;;;4.78;1.30;;;16.20;61.90;;;;;;6365935;22;20048;-82
2022/06/30 06:51:50;;;;;;;11.10;1.83;;;16.20;61.10;;;;;;6365943;22;20365;-77
2022/06/30 06:54:56;;;;;;;3.10;1.42;;;16.20;61.10;;;;;;6366913;22;20006;-86
2022/06/30 06:58:04;;;;;;;3.72;1.42;;;16.30;61.70;;;;;;6367971;22;20003;-85
2022/06/30 07:01:11;;;;;;;1.83;0.93;;;16.30;61.60;;;;;;6368362;22;20025;-71
2022/06/30 07:04:17;;;;;;;5.13;1.42;;;16.30;62.10;;;;;;6365250;22;20002;-69
2022/06/30 07:06:43;;;;;;;12.73;1.83;;;16.30;61.40;;;;;;6366576;22;19998;-68
2022/06/30 07:09:10;;;;;;;6.03;1.48;;;16.40;61.30;;;;;;6366447;22;20081;-74
2022/06/30 07:11:36;;;;;;;7.50;1.85;;;16.40;61.60;;;;;;6365534;22;20007;-69
2022/06/30 07:14:04;;;;;;;5.93;2.00;;;16.40;61.30;;;;;;6366880;22;20547;-72
2022/06/30 07:16:31;;;;;;;8.32;1.70;;;16.40;60.60;;;;;;6365653;22;20006;-70
2022/06/30 07:18:57;;;;;;;4.18;1.45;;;16.50;60.50;;;;;;6366451;22;20002;-71
2022/06/30 07:21:24;;;;;;;6.32;1.60;;;16.50;59.80;;;;;;6365473;22;20338;-73
2022/06/30 07:23:50;;;;;;;7.78;1.65;;;16.50;59.80;;;;;;6366243;22;20425;-71
2022/06/30 07:26:17;;;;;;;2.28;1.45;;;16.60;59.00;;;;;;6365724;22;20047;-70
2022/06/30 07:28:43;;;;;;;5.57;2.00;;;16.60;59.10;;;;;;6365867;22;20049;-72
2022/06/30 07:31:12;;;;;;;5.40;1.80;;;16.60;59.00;;;;;;6365847;22;20003;-70
2022/06/30 07:33:38;;;;;;;1.40;1.30;;;16.70;58.90;;;;;;6364979;22;19998;-69
2022/06/30 07:36:05;;;;;;;2.13;1.40;;;16.70;59.00;;;;;;6366410;22;20005;-69
2022/06/30 07:38:31;;;;;;;2.88;1.63;;;16.80;58.70;;;;;;6364481;22;20072;-71
2022/06/30 07:40:58;;;;;;;4.30;1.52;;;16.90;58.40;;;;;;6366266;22;20003;-70
2022/06/30 07:43:25;;;;;;;6.22;2.63;;;16.90;58.20;;;;;;6365566;22;19994;-70
2022/06/30 07:45:52;;;;;;;2.67;1.33;;;17.00;58.70;;;;;;6365913;22;20002;-71
2022/06/30 07:48:19;;;;;;;4.22;1.55;;;17.10;58.60;;;;;;6365981;22;19998;-68
2022/06/30 07:50:46;;;;;;;2.13;1.45;;;17.10;58.20;;;;;;6364964;22;20005;-69
2022/06/30 07:53:12;;;;;;;1.77;1.25;;;17.20;58.00;;;;;;6366080;22;20045;-70
2022/06/30 07:55:39;;;;;;;2.03;1.40;;;17.20;57.50;;;;;;6365072;22;20421;-69
2022/06/30 07:58:05;;;;;;;3.20;1.48;;;17.30;57.30;;;;;;6366164;22;20438;-68
2022/06/30 08:00:32;;;;;;;2.83;1.45;;;17.30;57.40;;;;;;6364882;22;20074;-68
2022/06/30 08:02:58;;;;;;;3.83;1.50;;;17.40;56.70;;;;;;6366167;22;19998;-67
2022/06/30 08:05:25;;;;;;;1.58;1.13;;;17.50;56.60;;;;;;6365611;22;20063;-69
2022/06/30 08:07:51;;;;;;;3.83;1.30;;;17.50;56.30;;;;;;6337097;22;20388;-70
2022/06/30 08:10:17;;;;;;;4.38;1.75;;;17.60;56.40;;;;;;6366740;22;20048;-69
2022/06/30 08:12:44;;;;;;;1.75;1.30;;;17.70;56.00;;;;;;6364550;22;20030;-70
2022/06/30 08:15:11;;;;;;;5.70;1.50;;;17.70;56.50;;;;;;6366459;22;20325;-69
2022/06/30 08:17:37;;;;;;;4.95;2.17;;;17.80;55.80;;;;;;6364100;22;20317;-70
2022/06/30 08:20:05;;;;;;;7.20;1.20;;;17.80;55.30;;;;;;6366091;22;19994;-68
2022/06/30 08:22:33;;;;;;;1.95;1.30;;;17.90;55.50;;;;;;6364856;22;20040;-69
2022/06/30 08:25:00;;;;;;;2.47;1.30;;;18.00;55.40;;;;;;6365395;22;19998;-68
2022/06/30 08:27:26;;;;;;;7.50;1.50;;;18.00;55.30;;;;;;6365482;22;20013;-70
2022/06/30 08:29:53;;;;;;;7.30;1.73;;;18.10;55.10;;;;;;6364880;22;19998;-68
2022/06/30 08:32:19;;;;;;;1.88;1.58;;;18.20;54.90;;;;;;6365915;22;20015;-69
2022/06/30 08:34:46;;;;;;;3.45;1.15;;;18.20;54.30;;;;;;6364632;22;20421;-71
2022/06/30 08:37:12;;;;;;;5.28;1.55;;;18.30;54.40;;;;;;6365624;22;20117;-69
2022/06/30 08:42:25;;;;;;;2.53;1.35;;;18.40;54.20;;;;;;6365355;22;20394;-68
2022/06/30 08:47:37;;;;;;;;;;;18.50;53.70;;;;;;6366204;22;20060;-69
2022/06/30 08:50:05;;;;;;;7.50;1.50;;;18.50;53.80;;;;;;6366037;22;19972;-67
2022/06/30 08:52:32;;;;;;;3.60;1.65;;;18.60;53.90;;;;;;6364038;22;20018;-69
2022/06/30 08:55:00;;;;;;;3.85;1.73;;;18.60;53.80;;;;;;6365673;22;20328;-68
2022/06/30 08:57:31;;;;;;;3.00;1.27;;;18.70;53.20;;;;;;6365323;22;20006;-68
2022/06/30 08:59:57;;;;;;;10.25;1.88;;;18.70;53.00;;;;;;6366959;22;19994;-70
2022/06/30 09:02:24;;;;;;;4.13;1.35;;;18.80;52.80;;;;;;6367881;22;20002;-70
2022/06/30 09:04:50;;;;;;;5.32;1.55;;;18.80;52.20;;;;;;6366360;22;20002;-68
2022/06/30 09:07:17;;;;;;;2.22;1.30;;;18.90;52.90;;;;;;6367916;22;20051;-69
2022/06/30 09:09:43;;;;;;;6.28;1.77;;;18.90;52.50;;;;;;6366321;22;20020;-69
2022/06/30 09:12:18;;;;;;;2.22;1.20;;;19.00;52.30;;;;;;6367326;22;20011;-71
2022/06/30 09:14:49;;;;;;;3.45;1.45;;;19.10;53.20;;;;;;6367316;22;20005;-69
2022/06/30 09:17:18;;;;;;;3.90;1.55;;;19.10;53.20;;;;;;6366716;22;20302;-70
2022/06/30 09:20:08;;;;;;;2.83;1.25;;;19.20;53.10;;;;;;6367592;22;20490;-69
2022/06/30 09:22:43;;;;;;;5.32;1.77;;;19.20;53.10;;;;;;6366336;22;20006;-69
2022/06/30 09:25:11;;;;;;;;;;;19.30;52.60;;;;;;6368288;22;20069;-69
2022/06/30 09:28:17;;;;;;;2.40;1.20;;;19.30;52.80;;;;;;6367094;22;20220;-73
2022/06/30 09:31:23;;;;;;;4.20;1.55;;;19.40;52.80;;;;;;6366050;22;20281;-72
2022/06/30 09:34:19;;;;;;;4.43;1.73;;;19.50;52.60;;;;;;6367168;22;20014;-71
2022/06/30 09:37:37;;;;;;;3.30;1.77;;;19.50;52.60;;;;;;6367672;22;20063;-71
2022/06/30 09:41:01;;;;;;;3.92;1.45;;;19.60;52.30;;;;;;6366022;22;19998;-67
2022/06/30 09:44:10;;;;;;;2.55;1.00;;;19.60;52.00;;;;;;6366406;22;20325;-68
2022/06/30 09:46:59;;;;;;;2.10;1.35;;;19.70;51.20;;;;;;6366783;22;20066;-66
2022/06/30 09:50:08;;;;;;;3.20;1.30;;;19.80;51.90;;;;;;6367178;22;19994;-67
2022/06/30 09:53:03;;;;;;;3.38;1.35;;;19.90;51.80;;;;;;6365846;22;20021;-68
2022/06/30 09:55:45;;;;;;;6.67;2.23;;;20.00;51.50;;;;;;6367622;22;20388;-68
2022/06/30 09:58:16;;;;;;;5.22;2.03;;;20.00;51.10;;;;;;6367056;22;20338;-68
2022/06/30 10:00:52;;;;;;;6.03;1.40;;;20.10;51.60;;;;;;6365972;22;19997;-70
2022/06/30 14:27:22;;;;;;;8.45;1.45;;;24.30;34.70;;;;;;5115378;27;20398;-78
2022/06/30 14:29:49;;;;;;;9.00;2.53;;;24.30;34.80;;;;;;5117158;28;20032;-76
2022/06/30 14:32:17;;;;;;;21.38;14.07;;;24.20;35.50;;;;;;5121306;27;20763;-74
2022/06/30 14:34:43;;;;;;;11.82;8.77;;;24.10;36.30;;;;;;5115189;27;20088;-76
2022/06/30 14:37:10;;;;;;;13.32;8.57;;;24.00;37.00;;;;;;5112996;27;20077;-76
2022/06/30 14:39:37;;;;;;;9.60;4.72;;;23.90;37.50;;;;;;5114235;27;20524;-73
2022/06/30 14:42:53;;;;;;;7.30;2.30;;;23.80;37.60;;;;;;5116319;28;20068;-70
2022/06/30 14:44:52;;;;;;;4.57;2.65;;;23.70;37.70;;;;;;5120728;27;20046;-71
2022/06/30 14:47:18;;;;;;;7.20;1.90;;;23.60;38.30;;;;;;5119587;28;20432;-72
2022/06/30 14:49:45;;;;;;;5.75;1.38;;;23.50;38.50;;;;;;5118518;28;20042;-75
2022/06/30 14:52:11;;;;;;;9.32;1.92;;;23.50;38.60;;;;;;5119931;27;20016;-72
2022/06/30 14:54:39;;;;;;;3.47;1.20;;;23.40;38.70;;;;;;5120029;28;20057;-77
2022/06/30 14:57:05;;;;;;;7.68;1.92;;;23.30;38.70;;;;;;5123790;28;20045;-77
2022/06/30 14:59:32;;;;;;;11.32;1.73;;;23.30;38.60;;;;;;5126118;28;20111;-77
2022/06/30 15:01:59;;;;;;;10.95;4.40;;;23.20;38.80;;;;;;5117013;28;20088;-75
2022/06/30 15:04:25;;;;;;;17.83;5.50;;;23.20;39.20;;;;;;5115776;28;20024;-81
2022/06/30 15:06:56;;;;;;;169.73;148.13;;;23.10;37.60;;;;;;5115945;28;20102;-73
2022/06/30 15:09:27;;;;;;;103.07;85.88;;;23.10;38.30;;;;;;5126030;28;20012;-71
2022/06/30 15:11:54;;;;;;;59.88;46.92;;;23.10;39.10;;;;;;5118968;27;20160;-75
2022/06/30 15:14:20;;;;;;;80.57;71.85;;;23.10;39.30;;;;;;5123436;27;20031;-70
2022/06/30 15:16:47;;;;;;;25.85;23.08;;;23.00;39.70;;;;;;5116996;27;20031;-74
2022/06/30 15:19:14;;;;;;;19.23;15.88;;;22.90;40.00;;;;;;5111384;28;20031;-74
2022/06/30 15:24:26;;;;;;;11.23;5.70;;;22.80;41.80;;;;;;5115407;28;20077;-77
2022/06/30 15:26:53;;;;;;;6.10;3.80;;;22.80;42.00;;;;;;5111412;27;20470;-70
2022/06/30 15:29:19;;;;;;;8.27;3.20;;;22.70;42.30;;;;;;5102355;28;20028;-73
2022/06/30 15:32:07;;;;;;;7.68;3.95;;;22.60;42.70;;;;;;5107922;28;20022;-76
2022/06/30 15:34:34;;;;;;;6.80;2.83;;;22.60;43.30;;;;;;5096798;27;20035;-76
2022/06/30 15:37:01;;;;;;;4.78;1.80;;;22.50;43.70;;;;;;5097011;28;20008;-77
2022/06/30 15:39:29;;;;;;;10.02;2.90;;;22.50;43.70;;;;;;5095687;28;20028;-76
2022/06/30 15:41:56;;;;;;;11.13;1.88;;;22.40;44.00;;;;;;5096935;28;20028;-74
2022/06/30 15:44:23;;;;;;;8.75;2.50;;;22.40;44.30;;;;;;5098422;28;20489;-76
2022/06/30 15:46:50;;;;;;;5.93;1.83;;;22.30;44.50;;;;;;5098502;28;20016;-77
2022/06/30 15:49:16;;;;;;;4.38;1.63;;;22.30;44.70;;;;;;5104532;28;20039;-77
2022/06/30 15:51:43;;;;;;;9.15;3.25;;;22.20;44.80;;;;;;5103437;28;20024;-75
2022/06/30 15:54:09;;;;;;;246.73;216.70;;;22.20;45.20;;;;;;5100969;28;20058;-74
2022/06/30 15:56:36;;;;;;;124.20;96.90;;;22.20;45.20;;;;;;5102159;28;20118;-74
2022/06/30 15:59:03;;;;;;;108.82;93.20;;;22.10;45.30;;;;;;5104550;28;20015;-72
2022/06/30 16:01:30;;;;;;;82.38;58.05;;;22.10;46.00;;;;;;5096632;28;20027;-73
2022/06/30 16:03:56;;;;;;;61.00;42.72;;;22.00;47.20;;;;;;5100466;27;20024;-77
2022/06/30 16:06:24;;;;;;;51.67;40.38;;;22.00;47.70;;;;;;5102694;28;20012;-77
2022/06/30 16:08:51;;;;;;;40.20;31.88;;;21.90;48.20;;;;;;5101005;28;20024;-76
2022/06/30 16:11:17;;;;;;;28.52;22.77;;;21.90;49.00;;;;;;5103246;28;20012;-75
2022/06/30 16:13:44;;;;;;;30.23;20.10;;;21.80;49.60;;;;;;5101556;28;20020;-72
2022/06/30 16:16:11;;;;;;;23.95;17.30;;;21.70;50.10;;;;;;5104809;28;20462;-70
2022/06/30 16:18:38;;;;;;;16.90;12.77;;;21.60;50.60;;;;;;5096417;28;20447;-77
2022/06/30 16:21:05;;;;;;;21.73;11.55;;;21.60;50.90;;;;;;5093067;28;20111;-77
2022/06/30 16:23:33;;;;;;;13.85;9.65;;;21.50;51.20;;;;;;5099408;28;20417;-70
2022/06/30 16:26:02;;;;;;;17.60;8.52;;;21.50;51.60;;;;;;5093627;28;20042;-72
2022/06/30 16:28:28;;;;;;;19.45;7.35;;;21.40;52.00;;;;;;5093329;28;20024;-69
2022/06/30 16:30:55;;;;;;;18.55;7.57;;;21.40;52.20;;;;;;5105257;27;20028;-72
2022/06/30 16:33:21;;;;;;;60.83;46.67;;;21.30;52.40;;;;;;5099975;28;20482;-77
2022/06/30 16:35:48;;;;;;;43.63;30.88;;;21.30;53.00;;;;;;5100245;28;20042;-72
2022/06/30 16:38:15;;;;;;;31.25;23.02;;;21.30;53.20;;;;;;5101512;28;20051;-74
2022/06/30 16:40:45;;;;;;;31.17;17.25;;;21.20;53.30;;;;;;5100585;28;20034;-73
2022/06/30 16:43:13;;;;;;;20.75;12.98;;;21.20;53.50;;;;;;5098015;27;20026;-73
2022/06/30 16:45:40;;;;;;;21.90;11.73;;;21.20;53.80;;;;;;5101338;28;20458;-69
2022/06/30 16:48:07;;;;;;;15.32;9.88;;;21.20;53.90;;;;;;5105328;28;20347;-76
2022/06/30 16:50:33;;;;;;;16.55;8.73;;;21.20;54.00;;;;;;5103845;28;20016;-74
2022/06/30 16:53:00;;;;;;;22.48;8.13;;;21.10;54.00;;;;;;5098198;28;20490;-76
2022/06/30 16:55:32;;;;;;;14.10;5.70;;;21.10;54.00;;;;;;5098064;28;20130;-72
2022/06/30 16:57:59;;;;;;;12.40;6.13;;;21.10;54.10;;;;;;5102444;28;20432;-74
2022/06/30 17:00:26;;;;;;;14.35;5.90;;;21.00;54.20;;;;;;5100519;28;20045;-73
2022/06/30 17:02:53;;;;;;;16.52;5.97;;;21.00;54.10;;;;;;5100524;28;20026;-77
2022/06/30 17:05:19;;;;;;;31.90;20.38;;;21.00;53.90;;;;;;5099173;28;20531;-75
2022/06/30 17:07:46;;;;;;;34.72;22.85;;;21.00;53.90;;;;;;5100752;28;20031;-75
2022/06/30 17:10:13;;;;;;;24.63;16.38;;;21.00;53.60;;;;;;5100724;28;20031;-68
2022/06/30 17:12:40;;;;;;;17.05;12.85;;;20.90;53.60;;;;;;5094360;28;20078;-73
2022/06/30 17:15:07;;;;;;;14.85;10.43;;;21.00;53.40;;;;;;5100871;28;20035;-75
2022/06/30 17:17:34;;;;;;;12.27;8.75;;;20.90;53.40;;;;;;5097804;28;20025;-71
2022/06/30 17:20:01;;;;;;;6.93;5.93;;;20.90;53.30;;;;;;5098645;28;20024;-73
2022/06/30 17:22:34;;;;;;;17.40;5.78;;;20.90;53.40;;;;;;5100279;28;20481;-77
2022/06/30 17:25:01;;;;;;;8.48;3.92;;;20.90;53.80;;;;;;5102595;28;20044;-79
2022/06/30 17:27:27;;;;;;;7.22;3.92;;;20.90;54.00;;;;;;5100661;28;20028;-74
2022/06/30 17:29:56;;;;;;;10.90;3.30;;;20.90;53.90;;;;;;5100670;28;20020;-79
2022/06/30 17:32:23;;;;;;;13.80;2.85;;;20.90;53.70;;;;;;5134098;27;20028;-75
2022/06/30 17:34:50;;;;;;;3.20;2.50;;;20.90;53.50;;;;;;5097567;28;20031;-73
2022/06/30 17:37:16;;;;;;;8.60;2.28;;;20.90;53.20;;;;;;5099218;28;20360;-76
2022/06/30 17:39:43;;;;;;;4.28;2.03;;;20.90;53.30;;;;;;5101497;28;20016;-71
2022/06/30 17:42:09;;;;;;;3.55;1.92;;;20.90;53.30;;;;;;5096373;28;20399;-72
2022/06/30 17:44:36;;;;;;;3.83;1.70;;;20.90;53.00;;;;;;5098106;28;20467;-71
2022/06/30 17:47:04;;;;;;;9.40;1.48;;;20.90;53.00;;;;;;5099353;28;20051;-76
2022/06/30 17:49:30;;;;;;;2.42;1.35;;;20.90;52.60;;;;;;5096719;28;20031;-77
2022/06/30 17:51:57;;;;;;;4.88;1.73;;;20.90;52.50;;;;;;5100611;28;20102;-78
2022/06/30 17:54:30;;;;;;;1.73;1.25;;;20.90;52.40;;;;;;5100700;28;20024;-80
2022/06/30 17:56:56;;;;;;;1.60;1.50;;;20.90;52.30;;;;;;5098936;28;20138;-75
2022/06/30 17:59:23;;;;;;;1.88;1.23;;;20.80;52.10;;;;;;5100969;28;20024;-71
2022/06/30 18:01:50;;;;;;;1.48;1.35;;;20.90;52.70;;;;;;5096524;28;20099;-77
2022/06/30 22:06:11;;;;;;;6.63;1.23;;;19.00;55.00;;;;;;5097773;27;20463;-77
2022/06/30 22:08:37;;;;;;;3.00;1.10;;;19.20;54.30;;;;;;5080304;28;20032;-79
2022/06/30 22:11:03;;;;;;;2.53;1.23;;;19.20;53.80;;;;;;5082493;28;20051;-79
2022/06/30 22:13:30;;;;;;;1.92;1.27;;;19.30;53.60;;;;;;5084264;28;20066;-79
2022/06/30 22:15:56;;;;;;;7.63;1.10;;;19.30;53.30;;;;;;5086922;28;20024;-79
2022/06/30 22:18:23;;;;;;;3.30;0.88;;;19.40;53.20;;;;;;5086163;28;20051;-78
2022/06/30 22:20:49;;;;;;;5.10;1.10;;;19.40;53.40;;;;;;5082725;28;20482;-78
2022/06/30 22:23:16;;;;;;;2.08;0.63;;;19.40;53.20;;;;;;5081958;28;20100;-80
2022/06/30 22:25:42;;;;;;;3.17;0.98;;;19.50;53.10;;;;;;5085458;28;20028;-79
2022/06/30 22:28:09;;;;;;;3.38;0.70;;;19.50;52.90;;;;;;5084581;28;20482;-82
2022/06/30 22:30:35;;;;;;;1.08;0.70;;;19.50;53.10;;;;;;5086386;28;20375;-83
2022/06/30 22:33:02;;;;;;;0.98;0.90;;;19.60;53.10;;;;;;5084612;28;20029;-81
2022/06/30 22:35:29;;;;;;;0.93;0.80;;;19.50;52.80;;;;;;5083057;28;20052;-79
2022/06/30 22:37:56;;;;;;;0.88;0.80;;;19.60;52.90;;;;;;5082373;28;20032;-77
2022/06/30 22:40:23;;;;;;;8.15;1.45;;;19.60;52.80;;;;;;5086705;28;20069;-80
2022/06/30 22:42:50;;;;;;;6.68;1.50;;;19.60;53.50;;;;;;5082988;28;20101;-76
2022/06/30 22:45:16;;;;;;;14.40;2.40;;;19.60;54.10;;;;;;5082340;28;20033;-77
2022/06/30 22:47:43;;;;;;;5.18;1.40;;;19.70;53.70;;;;;;5082434;28;20056;-79
2022/06/30 22:50:10;;;;;;;6.13;0.85;;;19.60;53.20;;;;;;5079107;28;20134;-80
2022/06/30 22:52:36;;;;;;;2.22;0.85;;;19.60;53.40;;;;;;5085585;28;20490;-80
2022/06/30 22:55:04;;;;;;;3.03;0.80;;;19.60;54.40;;;;;;5082769;28;20490;-80
2022/06/30 22:57:30;;;;;;;10.60;1.30;;;19.70;54.00;;;;;;5086883;28;20012;-80
2022/06/30 22:59:57;;;;;;;4.60;1.35;;;19.70;54.50;;;;;;5079129;28;20032;-80
2022/06/30 23:02:23;;;;;;;10.07;1.27;;;19.70;53.70;;;;;;5082572;28;20027;-79
2022/06/30 23:04:50;;;;;;;7.70;0.80;;;19.60;53.40;;;;;;5075484;28;20044;-82
2022/06/30 23:07:16;;;;;;;2.88;0.68;;;19.70;53.40;;;;;;5071409;28;20103;-82
2022/06/30 23:09:43;;;;;;;2.55;0.80;;;19.70;53.40;;;;;;5077424;28;20028;-81
2022/06/30 23:12:09;;;;;;;1.70;0.60;;;19.60;53.30;;;;;;5063895;28;20491;-82
2022/06/30 23:14:36;;;;;;;8.38;1.42;;;19.70;53.00;;;;;;5075318;28;20036;-77
2022/06/30 23:17:02;;;;;;;7.40;1.00;;;19.60;53.10;;;;;;5067732;28;20099;-81
2022/06/30 23:19:29;;;;;;;9.77;1.05;;;19.60;53.40;;;;;;5071161;28;20463;-79